Home

Weather

KSLC Current Conditions

KSLC 200654Z 14004KT 10SM FEW100 SCT200 18/04 A3013 RMK AO2 SLP158 T01830044 402560156

KSLC Aviation Forecast

TAF KSLC 200527Z 2006/2112 16006KT P6SM FEW100 FEW200 FM201600 33006KT P6SM FEW120 FM210400 16006KT P6SM SKC


65° F
Clear
Clear

Clear
Wednesday
Clear
High 85°/Low 63°
0%
Clear
Thursday
Clear
High 93°/Low 64°
0%
Clear
Friday
Clear
High 86°/Low 61°
0%
Clear
Saturday
Clear
High 87°/Low 56°
0%
Clear
Sunday
Clear
High 78°/Low 58°
0%
Clear
Monday
Clear
High 90°/Low 66°
0%